This is the latest recevied weather packets stored in our database for station/object E27IHO-13. If no packets are shown the sender has not sent any weather packets the latest 10 day(s).
| Time | Temp. | Humidity | Pressure | Rain* | Wind** | Luminosity | Snow |
|---|---|---|---|---|---|---|---|
| 1777417865 | 29.44° C | 76% | 1009 hPa | - | - | 0 W/m² | - |
| 1777417543 | 29.44° C | 76% | 1009 hPa | - | - | 0 W/m² | - |
| 1777417220 | 29.44° C | 76% | 1008 hPa | - | - | 0 W/m² | - |
| 1777380813 | 32.78° C | 58% | 1007 hPa | - | - | 0 W/m² | - |
| 1777380491 | 33.33° C | 57% | 1007 hPa | - | - | 0 W/m² | - |
| 1777380169 | 33.33° C | 56% | 1007 hPa | - | - | 0 W/m² | - |
| 1777380051 | 33.33° C | 56% | 1007 hPa | - | - | 0 W/m² | - |
| 1777379729 | 33.33° C | 56% | 1007 hPa | - | - | 0 W/m² | - |
| 1777379407 | 32.78° C | 57% | 1007 hPa | - | - | 0 W/m² | - |
| 1777379085 | 33.33° C | 57% | 1007 hPa | - | - | 0 W/m² | - |
| 1777378763 | 33.33° C | 59% | 1007 hPa | - | - | 0 W/m² | - |
| 1777378441 | 33.33° C | 62% | 1007 hPa | - | - | 0 W/m² | - |
| 1777378119 | 33.33° C | 62% | 1006 hPa | - | - | 0 W/m² | - |
| 1777377797 | 33.33° C | 63% | 1006 hPa | - | - | 0 W/m² | - |
| 1777377475 | 33.33° C | 62% | 1006 hPa | - | - | 0 W/m² | - |
| 1777377153 | 33.33° C | 62% | 1006 hPa | - | - | 0 W/m² | - |
| 1777376831 | 33.33° C | 64% | 1006 hPa | - | - | 0 W/m² | - |
| 1777376695 | 33.89° C | 60% | 1006 hPa | - | - | 0 W/m² | - |
| 1777376373 | 33.89° C | 59% | 1006 hPa | - | - | 0 W/m² | - |
| 1777357798 | 38.89° C | 41% | 1008 hPa | - | - | 0 W/m² | - |
| 1777357477 | 38.89° C | 44% | 1008 hPa | - | - | 0 W/m² | - |
| 1777357154 | 38.89° C | 42% | 1008 hPa | - | - | 0 W/m² | - |
| 1777356832 | 38.33° C | 43% | 1008 hPa | - | - | 0 W/m² | - |
| 1777356510 | 38.33° C | 45% | 1008 hPa | - | - | 0 W/m² | - |
| 1777356188 | 38.33° C | 44% | 1008 hPa | - | - | 0 W/m² | - |
* Rain since midnight (hover to see other rain measurements)
** Current wind speed in m/s (hover to see current wind gust speed)